createdAt,value
2019-02-08T00:02:20.943Z,50.03
2019-02-08T00:04:51.270Z,47.23
2019-02-08T00:07:21.470Z,48.60
2019-02-08T00:09:51.762Z,50.00
2019-02-08T00:12:22.372Z,50.03
2019-02-08T00:14:52.574Z,51.23
2019-02-08T00:17:23.107Z,50.83
2019-02-08T00:19:53.761Z,45.90
2019-02-08T00:22:23.978Z,53.87
2019-02-08T00:24:54.201Z,49.93
2019-02-08T00:27:24.900Z,47.07
2019-02-08T00:29:55.091Z,55.07
2019-02-08T00:32:25.345Z,46.90
2019-02-08T00:34:55.987Z,57.03
2019-02-08T00:37:26.181Z,49.93
2019-02-08T00:39:56.373Z,48.20
2019-02-08T00:42:26.603Z,57.93
2019-02-08T00:44:56.879Z,51.90
2019-02-08T00:47:27.064Z,51.77
2019-02-08T00:49:57.347Z,47.60
2019-02-08T00:52:27.541Z,53.90
2019-02-08T00:54:57.797Z,55.73
2019-02-08T00:57:28.001Z,60.80
2019-02-08T00:59:58.212Z,59.33
2019-02-08T01:02:28.716Z,55.23
2019-02-08T01:04:59.327Z,63.50
2019-02-08T01:07:29.552Z,57.60
2019-02-08T01:09:59.770Z,52.23
2019-02-08T01:12:30.002Z,59.83
2019-02-08T01:15:00.254Z,53.90
2019-02-08T01:17:31.508Z,57.67
2019-02-08T01:20:02.755Z,52.23
2019-02-08T01:22:33.930Z,55.30
2019-02-08T01:25:05.468Z,53.43
2019-02-08T01:27:35.683Z,54.00
2019-02-08T01:30:09.261Z,49.40
2019-02-08T01:32:39.534Z,52.10
2019-02-08T01:35:10.803Z,56.73
2019-02-08T01:37:41.031Z,48.33
2019-02-08T01:40:16.827Z,47.53
2019-02-08T01:42:47.675Z,53.50
2019-02-08T01:45:20.357Z,45.80
2019-02-08T01:47:50.707Z,50.17
2019-02-08T01:50:22.607Z,46.87
2019-02-08T01:52:52.943Z,45.73
2019-02-08T01:55:23.208Z,43.33
2019-02-08T01:57:53.942Z,44.80
2019-02-08T02:00:26.748Z,47.27
2019-02-08T02:02:57.230Z,46.17
2019-02-08T02:05:27.587Z,53.93
2019-02-08T02:07:57.851Z,39.23
2019-02-08T02:10:36.041Z,43.67
2019-02-08T02:13:06.984Z,47.37
2019-02-08T02:15:37.317Z,50.30
2019-02-08T02:18:08.716Z,45.00
2019-02-08T02:20:40.968Z,46.33
2019-02-08T02:23:13.284Z,48.27
2019-02-08T02:25:43.522Z,49.00
2019-02-08T02:28:13.920Z,44.43
2019-02-08T02:30:44.275Z,48.47
2019-02-08T02:33:14.914Z,51.50
2019-02-08T02:35:45.431Z,48.70
2019-02-08T02:38:16.642Z,48.03
2019-02-08T02:40:46.814Z,48.43
2019-02-08T02:43:17.019Z,43.57
2019-02-08T02:45:47.662Z,42.93
2019-02-08T02:48:17.921Z,44.27
2019-02-08T02:50:48.121Z,41.10
2019-02-08T02:53:18.667Z,43.97
2019-02-08T02:55:48.882Z,39.30
2019-02-08T02:58:19.153Z,37.93
2019-02-08T03:00:49.437Z,41.77
2019-02-08T03:03:19.934Z,39.73
2019-02-08T03:05:50.326Z,33.93
2019-02-08T03:08:21.491Z,32.10
2019-02-08T03:10:51.740Z,35.80
2019-02-08T03:13:22.049Z,38.87
2019-02-08T03:15:52.206Z,38.03
2019-02-08T03:18:22.395Z,32.73
2019-02-08T03:20:52.772Z,30.63
2019-02-08T03:23:23.040Z,30.67
2019-02-08T03:25:53.256Z,24.50
2019-02-08T03:28:23.758Z,27.03
2019-02-08T03:30:56.321Z,28.90
2019-02-08T03:33:26.790Z,25.33
2019-02-08T03:35:57.341Z,23.53
2019-02-08T03:38:27.532Z,20.87
2019-02-08T03:40:57.858Z,23.77
2019-02-08T03:43:28.131Z,20.90
2019-02-08T03:45:58.344Z,25.80
2019-02-08T03:48:28.533Z,23.87
2019-02-08T03:50:58.721Z,21.47
2019-02-08T03:53:28.974Z,22.03
2019-02-08T03:55:59.173Z,24.37
2019-02-08T03:58:29.371Z,22.40
2019-02-08T04:01:04.764Z,27.07
2019-02-08T04:03:35.316Z,24.73
2019-02-08T04:06:06.299Z,23.87
2019-02-08T04:08:36.495Z,28.83
2019-02-08T04:11:06.666Z,35.40
2019-02-08T04:13:36.872Z,28.50
2019-02-08T04:16:07.215Z,29.00
2019-02-08T04:18:37.419Z,30.10
2019-02-08T04:21:07.641Z,32.67
2019-02-08T04:23:37.868Z,27.50
2019-02-08T04:26:08.077Z,26.97
2019-02-08T04:28:38.329Z,26.60
2019-02-08T04:31:08.840Z,27.07
2019-02-08T04:33:39.012Z,26.63
2019-02-08T04:36:09.452Z,25.50
2019-02-08T04:38:39.775Z,26.07
2019-02-08T04:41:09.986Z,21.77
2019-02-08T04:43:40.324Z,27.37
2019-02-08T04:46:10.554Z,25.83
2019-02-08T04:48:40.810Z,33.83
2019-02-08T04:51:11.004Z,26.90
2019-02-08T04:53:41.215Z,24.13
2019-02-08T04:56:11.450Z,24.57
2019-02-08T04:58:41.700Z,27.37
2019-02-08T05:01:11.934Z,18.13
2019-02-08T05:03:42.444Z,19.50
2019-02-08T05:06:12.682Z,24.07
2019-02-08T05:08:42.880Z,28.27
2019-02-08T05:11:13.129Z,30.27
2019-02-08T05:13:43.323Z,31.00
2019-02-08T05:16:13.533Z,41.60
2019-02-08T05:18:43.726Z,36.53
2019-02-08T05:21:14.058Z,26.57
2019-02-08T05:23:44.215Z,23.20
2019-02-08T05:26:14.436Z,34.37
2019-02-08T05:28:44.921Z,32.67
2019-02-08T05:31:15.177Z,26.80
2019-02-08T05:33:45.343Z,32.17
2019-02-08T05:36:15.617Z,26.30
2019-02-08T05:38:45.818Z,31.83
2019-02-08T05:41:16.176Z,28.27
2019-02-08T05:43:46.413Z,26.40
2019-02-08T05:46:16.688Z,23.50
2019-02-08T05:48:46.897Z,32.27
2019-02-08T05:51:17.143Z,24.03
2019-02-08T05:53:47.318Z,24.90
2019-02-08T05:56:17.752Z,28.60
2019-02-08T05:58:48.002Z,24.73
2019-02-08T06:01:18.229Z,29.97
2019-02-08T06:03:48.572Z,19.23
2019-02-08T06:06:18.983Z,15.97
2019-02-08T06:08:49.334Z,15.50
2019-02-08T06:11:19.589Z,14.97
2019-02-08T06:13:49.911Z,14.70
2019-02-08T06:16:21.307Z,13.20
2019-02-08T06:18:51.555Z,13.30
2019-02-08T06:21:21.729Z,14.20
2019-02-08T06:23:51.952Z,12.30
2019-02-08T06:26:22.500Z,10.57
2019-02-08T06:28:52.712Z,13.63
2019-02-08T06:31:23.996Z,11.53
2019-02-08T06:33:54.257Z,15.93
2019-02-08T06:36:24.589Z,11.80
2019-02-08T06:38:54.837Z,12.13
2019-02-08T06:41:25.327Z,9.00
2019-02-08T06:43:55.630Z,10.03
2019-02-08T06:46:26.837Z,8.73
2019-02-08T06:48:57.951Z,10.20
2019-02-08T06:51:28.314Z,11.40
2019-02-08T06:53:58.637Z,12.10
2019-02-08T06:56:46.236Z,12.63
2019-02-08T06:59:35.762Z,14.93
2019-02-08T07:02:17.211Z,11.07
2019-02-08T07:05:06.754Z,11.87
2019-02-08T07:07:52.725Z,8.97
2019-02-08T07:10:50.713Z,12.27
2019-02-08T07:13:39.877Z,10.77
2019-02-08T07:16:35.111Z,11.97
2019-02-08T07:19:30.326Z,12.00
2019-02-08T07:22:25.325Z,13.10
2019-02-08T07:25:18.156Z,8.33
2019-02-08T07:27:49.443Z,10.40
2019-02-08T07:30:52.545Z,14.70
2019-02-08T07:33:37.674Z,13.93
2019-02-08T07:36:38.306Z,19.50
2019-02-08T07:39:19.588Z,17.83
2019-02-08T07:42:26.954Z,21.53
2019-02-08T07:45:06.916Z,21.23
2019-02-08T07:47:44.731Z,22.37
2019-02-08T07:50:33.944Z,23.70
2019-02-08T07:53:37.301Z,22.67
2019-02-08T07:56:25.048Z,19.87
2019-02-08T07:59:17.084Z,24.83
2019-02-08T08:02:08.195Z,23.77
2019-02-08T08:05:03.665Z,21.50
2019-02-08T08:07:53.305Z,20.30
2019-02-08T08:10:38.203Z,20.70
2019-02-08T08:13:38.158Z,19.27
2019-02-08T08:16:24.290Z,22.63
2019-02-08T08:19:24.100Z,22.93
2019-02-08T08:22:08.611Z,21.10
2019-02-08T08:25:03.120Z,24.27
2019-02-08T08:27:52.592Z,20.13
2019-02-08T08:30:38.952Z,27.73
2019-02-08T08:33:33.129Z,22.60
2019-02-08T08:37:08.711Z,23.97
2019-02-08T08:40:29.266Z,24.77
2019-02-08T08:43:52.521Z,23.63
2019-02-08T08:47:14.864Z,26.60
2019-02-08T08:50:25.081Z,29.60
2019-02-08T08:53:39.208Z,29.87
2019-02-08T08:56:58.051Z,29.67
2019-02-08T08:59:54.327Z,30.27
2019-02-08T09:02:58.236Z,31.60
2019-02-08T09:05:55.840Z,29.67
2019-02-08T09:09:02.652Z,32.20
2019-02-08T09:12:22.361Z,28.60
2019-02-08T09:15:22.491Z,27.67
2019-02-08T09:18:42.377Z,28.10
2019-02-08T09:21:55.618Z,24.93
2019-02-08T09:25:13.161Z,23.37
2019-02-08T09:28:23.363Z,21.97
2019-02-08T09:31:42.281Z,21.57
2019-02-08T09:35:14.269Z,26.13
2019-02-08T09:38:43.386Z,24.57
2019-02-08T09:41:43.903Z,28.27
2019-02-08T09:45:16.904Z,25.13
2019-02-08T09:48:42.846Z,23.83
2019-02-08T09:51:59.867Z,21.47
2019-02-08T09:55:10.553Z,23.07
2019-02-08T09:58:20.580Z,23.40
2019-02-08T10:01:43.440Z,18.97
2019-02-08T10:04:41.436Z,24.90
2019-02-08T10:07:51.865Z,23.47
2019-02-08T10:11:09.548Z,24.67
2019-02-08T10:14:31.705Z,25.17
2019-02-08T10:17:42.890Z,25.90
2019-02-08T10:20:59.618Z,28.33
2019-02-08T10:24:09.906Z,24.63
2019-02-08T10:27:18.941Z,27.43
2019-02-08T10:30:43.096Z,24.98
2019-02-08T10:33:55.709Z,26.03
2019-02-08T10:37:05.550Z,23.43
2019-02-08T10:40:23.476Z,26.13
2019-02-08T10:43:50.766Z,24.30
2019-02-08T10:47:00.931Z,21.13
2019-02-08T10:50:04.852Z,25.80
2019-02-08T10:53:11.538Z,20.43
2019-02-08T10:56:17.029Z,19.27
2019-02-08T10:59:29.965Z,22.47
2019-02-08T11:02:41.788Z,21.83
2019-02-08T11:05:59.242Z,21.70
2019-02-08T11:09:09.696Z,20.97
2019-02-08T11:12:28.772Z,20.73
2019-02-08T11:15:39.992Z,26.10
2019-02-08T11:18:45.770Z,22.03
2019-02-08T11:21:15.990Z,19.37
2019-02-08T11:23:48.406Z,23.63
2019-02-08T11:26:23.183Z,21.83
2019-02-08T11:28:51.064Z,20.50
2019-02-08T11:31:21.329Z,17.60
2019-02-08T11:33:52.405Z,21.07
2019-02-08T11:36:24.492Z,18.57
2019-02-08T11:38:54.752Z,16.43
2019-02-08T11:41:25.937Z,14.47
2019-02-08T11:43:56.145Z,16.87
2019-02-08T11:46:29.201Z,16.67
2019-02-08T11:49:02.280Z,17.87
2019-02-08T11:51:33.606Z,21.20
2019-02-08T11:54:04.519Z,17.03
2019-02-08T11:56:34.798Z,14.40
2019-02-08T11:59:05.979Z,17.97
2019-02-08T12:01:39.828Z,16.07
2019-02-08T12:04:12.127Z,16.67
2019-02-08T12:06:43.108Z,20.27
2019-02-08T12:09:18.505Z,17.30
2019-02-08T12:11:50.750Z,20.63
2019-02-08T12:15:10.294Z,22.80
2019-02-08T12:17:43.237Z,20.30
2019-02-08T12:20:18.052Z,22.03
2019-02-08T12:22:49.547Z,17.40
2019-02-08T12:25:21.052Z,18.80
2019-02-08T12:27:52.521Z,20.13
2019-02-08T12:30:29.679Z,18.17
2019-02-08T12:33:02.340Z,19.40
2019-02-08T12:35:33.828Z,18.03
2019-02-08T12:38:04.262Z,17.93
2019-02-08T12:40:34.728Z,17.37
2019-02-08T12:43:05.730Z,19.67
2019-02-08T12:45:35.975Z,17.53
2019-02-08T12:48:06.391Z,15.47
2019-02-08T12:50:37.240Z,20.20
2019-02-08T12:53:07.807Z,18.87
2019-02-08T12:55:38.668Z,16.83
2019-02-08T12:58:08.927Z,14.73
2019-02-08T13:00:39.892Z,16.40
2019-02-08T13:03:12.492Z,20.53
2019-02-08T13:05:42.897Z,17.93
2019-02-08T13:08:13.171Z,17.97
2019-02-08T13:10:43.405Z,16.37
2019-02-08T13:13:16.169Z,16.87
2019-02-08T13:15:47.439Z,17.97
2019-02-08T13:18:17.842Z,18.40
2019-02-08T13:20:50.654Z,16.23
2019-02-08T13:23:33.342Z,16.67
2019-02-08T13:26:07.434Z,17.50
2019-02-08T13:28:40.339Z,15.47
2019-02-08T13:31:10.633Z,16.63
2019-02-08T13:33:49.402Z,16.00
2019-02-08T13:36:28.834Z,19.47
2019-02-08T13:39:08.604Z,17.60
2019-02-08T13:41:49.858Z,17.53
2019-02-08T13:44:30.193Z,19.67
2019-02-08T13:47:11.029Z,20.40
2019-02-08T13:49:51.234Z,19.57
2019-02-08T13:52:30.622Z,19.07
2019-02-08T13:55:15.185Z,21.60
2019-02-08T13:57:57.013Z,18.33
2019-02-08T14:00:38.487Z,17.00
2019-02-08T14:03:20.262Z,15.00
2019-02-08T14:06:01.950Z,17.53
2019-02-08T14:08:41.782Z,17.17
2019-02-08T14:11:20.355Z,19.27
2019-02-08T14:13:59.687Z,16.40
2019-02-08T14:16:40.379Z,18.27
2019-02-08T14:19:20.427Z,18.83
2019-02-08T14:22:02.344Z,16.07
2019-02-08T14:24:42.267Z,18.73
2019-02-08T14:27:14.840Z,18.87
2019-02-08T14:29:47.066Z,20.30
2019-02-08T14:32:18.306Z,19.53
2019-02-08T14:34:49.648Z,18.63
2019-02-08T14:37:21.928Z,20.47
2019-02-08T14:39:53.135Z,21.80
2019-02-08T14:42:23.816Z,18.50
2019-02-08T14:44:54.059Z,22.30
2019-02-08T14:47:25.576Z,17.50
2019-02-08T14:49:56.834Z,17.73
2019-02-08T14:52:28.101Z,19.27
2019-02-08T14:54:58.463Z,20.30
2019-02-08T14:57:28.653Z,21.03
2019-02-08T14:59:59.451Z,21.03
2019-02-08T15:02:29.688Z,23.63
2019-02-08T15:05:00.051Z,17.27
2019-02-08T15:07:30.275Z,17.67
2019-02-08T15:10:00.508Z,17.87
2019-02-08T15:12:30.806Z,20.13
2019-02-08T15:15:03.251Z,21.23
2019-02-08T15:17:33.830Z,16.90
2019-02-08T15:20:07.889Z,18.00
2019-02-08T15:22:38.145Z,22.43
2019-02-08T15:25:08.850Z,18.57
2019-02-08T15:27:39.461Z,21.93
2019-02-08T15:30:12.584Z,23.53
2019-02-08T15:32:42.813Z,23.63
2019-02-08T15:35:13.989Z,21.07
2019-02-08T15:37:45.663Z,29.13
2019-02-08T15:40:25.942Z,22.37
2019-02-08T15:43:19.981Z,27.63
2019-02-08T15:46:01.665Z,23.67
2019-02-08T15:48:40.340Z,21.77
2019-02-08T15:51:10.576Z,22.57
2019-02-08T15:53:40.809Z,25.93
2019-02-08T15:56:16.153Z,27.40
2019-02-08T15:58:47.333Z,26.43
2019-02-08T16:01:17.727Z,26.73
2019-02-08T16:03:48.310Z,29.43
2019-02-08T16:06:18.487Z,26.53
2019-02-08T16:08:48.691Z,26.60
2019-02-08T16:11:18.907Z,27.30
2019-02-08T16:13:49.176Z,29.87
2019-02-08T16:16:19.651Z,31.60
2019-02-08T16:18:49.929Z,28.30
2019-02-08T16:21:20.862Z,28.63
2019-02-08T16:23:51.182Z,28.70
2019-02-08T16:26:21.406Z,28.87
2019-02-08T16:28:51.921Z,35.50
2019-02-08T16:31:22.756Z,28.53
2019-02-08T16:33:53.185Z,30.43
2019-02-08T16:36:23.377Z,34.27
2019-02-08T16:38:53.585Z,26.87
2019-02-08T16:41:24.562Z,27.93
2019-02-08T16:43:54.824Z,30.83
2019-02-08T16:46:25.259Z,33.23
2019-02-08T16:48:55.559Z,30.37
2019-02-08T16:51:26.939Z,27.43
2019-02-08T16:53:57.225Z,26.80
2019-02-08T16:56:27.428Z,32.00
2019-02-08T16:58:57.677Z,31.87
2019-02-08T17:01:28.079Z,28.93
2019-02-08T17:03:58.374Z,28.27
2019-02-08T17:06:28.682Z,33.63
2019-02-08T17:08:58.898Z,32.10
2019-02-08T17:11:29.118Z,33.20
2019-02-08T17:13:59.388Z,28.40
2019-02-08T17:16:29.934Z,30.03
2019-02-08T17:19:00.116Z,31.27
2019-02-08T17:21:30.296Z,33.90
2019-02-08T17:24:00.731Z,33.73
2019-02-08T17:26:30.931Z,30.67
2019-02-08T17:29:01.228Z,31.20
2019-02-08T17:31:31.629Z,32.70
2019-02-08T17:34:01.803Z,29.87
2019-02-08T17:36:32.068Z,32.93
2019-02-08T17:39:02.797Z,33.27
2019-02-08T17:41:34.805Z,32.90
2019-02-08T17:44:05.593Z,37.67
2019-02-08T17:46:35.834Z,34.73
2019-02-08T17:49:06.007Z,35.07
2019-02-08T17:51:37.203Z,39.27
2019-02-08T17:54:07.493Z,38.70
2019-02-08T17:56:38.128Z,35.87
2019-02-08T17:59:08.306Z,35.37
2019-02-08T18:01:38.571Z,39.60
2019-02-08T18:04:32.799Z,34.00
2019-02-08T18:07:03.031Z,38.60
2019-02-08T18:09:33.240Z,33.50
2019-02-08T18:12:03.585Z,34.57
2019-02-08T18:14:33.772Z,42.00
2019-02-08T18:17:04.164Z,35.77
2019-02-08T18:19:34.384Z,41.37
2019-02-08T18:22:04.859Z,41.23
2019-02-08T18:24:35.054Z,45.10
2019-02-08T18:27:05.442Z,46.23
2019-02-08T18:29:35.620Z,37.87
2019-02-08T18:32:05.938Z,37.23
2019-02-08T18:34:36.201Z,36.80
2019-02-08T18:37:06.574Z,36.77
2019-02-08T18:39:38.043Z,35.40
2019-02-08T18:42:08.215Z,30.30
2019-02-08T18:44:38.971Z,34.00
2019-02-08T18:47:09.228Z,32.60
2019-02-08T18:49:39.438Z,28.83
2019-02-08T18:52:09.693Z,32.20
2019-02-08T18:54:39.863Z,30.73
2019-02-08T18:57:10.319Z,35.40
2019-02-08T18:59:41.336Z,28.27
2019-02-08T19:02:11.803Z,32.93
2019-02-08T19:04:41.978Z,32.63
2019-02-08T19:07:12.237Z,29.60
2019-02-08T19:09:42.874Z,30.77
2019-02-08T19:12:13.364Z,27.67
2019-02-08T19:14:43.552Z,27.23
2019-02-08T19:17:14.525Z,26.23
2019-02-08T19:19:45.779Z,31.30
2019-02-08T19:22:15.981Z,29.83
2019-02-08T19:24:46.189Z,29.40
2019-02-08T19:27:16.375Z,33.23
2019-02-08T19:29:46.632Z,38.43
2019-02-08T19:32:17.759Z,37.43
2019-02-08T19:34:48.079Z,34.07
2019-02-08T19:37:18.300Z,28.77
2019-02-08T19:39:48.552Z,29.70
2019-02-08T19:42:18.770Z,31.00
2019-02-08T19:44:48.944Z,24.50
2019-02-08T19:47:19.172Z,25.23
2019-02-08T19:49:49.576Z,27.20
2019-02-08T19:52:19.865Z,22.00
2019-02-08T19:54:50.091Z,22.77
2019-02-08T19:57:20.286Z,26.10
2019-02-08T19:59:50.480Z,26.40
2019-02-08T20:02:20.745Z,25.20
2019-02-08T20:04:51.149Z,26.77
2019-02-08T20:07:21.346Z,25.07
2019-02-08T20:09:51.757Z,27.40
2019-02-08T20:12:22.158Z,28.10
2019-02-08T20:14:52.576Z,27.43
2019-02-08T20:17:23.004Z,26.33
2019-02-08T20:19:53.233Z,26.23
2019-02-08T20:22:23.436Z,27.17
2019-02-08T20:24:54.054Z,22.37
2019-02-08T20:27:24.271Z,25.43
2019-02-08T20:29:54.526Z,22.27
2019-02-08T20:32:24.818Z,22.10
2019-02-08T20:34:55.286Z,25.80
2019-02-08T20:37:25.476Z,26.47
2019-02-08T20:39:55.705Z,20.27
2019-02-08T20:42:25.957Z,21.83
2019-02-08T20:44:56.165Z,21.00
2019-02-08T20:47:26.345Z,18.80
2019-02-08T20:49:56.638Z,22.53
2019-02-08T20:52:26.848Z,23.00
2019-02-08T20:54:57.091Z,23.50
2019-02-08T20:57:27.300Z,23.53
2019-02-08T20:59:57.579Z,19.50
2019-02-08T21:02:27.914Z,19.07
2019-02-08T21:04:58.581Z,20.23
2019-02-08T21:07:28.804Z,22.33
2019-02-08T21:09:59.077Z,19.43
2019-02-08T21:12:29.366Z,25.23
2019-02-08T21:14:59.608Z,19.80
2019-02-08T21:17:30.152Z,19.40
2019-02-08T21:20:00.351Z,21.03
2019-02-08T21:22:30.550Z,19.73
2019-02-08T21:25:01.273Z,18.53
2019-02-08T21:27:32.392Z,23.10
2019-02-08T21:30:03.037Z,19.73
2019-02-08T21:32:33.235Z,17.63
2019-02-08T21:35:04.990Z,25.93
2019-02-08T21:37:36.443Z,19.90
2019-02-08T21:40:09.119Z,19.87
2019-02-08T21:42:39.738Z,16.70
2019-02-08T21:45:13.666Z,20.80
2019-02-08T21:47:43.842Z,20.57
2019-02-08T21:50:15.986Z,20.33
2019-02-08T21:52:46.189Z,17.97
2019-02-08T21:55:17.463Z,18.37
2019-02-08T21:57:47.660Z,16.53
2019-02-08T22:00:21.336Z,20.57
2019-02-08T22:02:51.852Z,18.87
2019-02-08T22:05:24.768Z,19.57
2019-02-08T22:07:55.212Z,19.57
2019-02-08T22:10:25.814Z,16.37
2019-02-08T22:12:57.093Z,14.30
2019-02-08T22:15:30.256Z,12.17
2019-02-08T22:18:01.010Z,14.27
2019-02-08T22:20:31.471Z,11.87
2019-02-08T22:23:01.675Z,11.73
2019-02-08T22:25:32.441Z,11.83
2019-02-08T22:28:02.779Z,17.37
2019-02-08T22:30:33.174Z,15.13
2019-02-08T22:33:03.676Z,12.73
2019-02-08T22:35:33.936Z,15.23
2019-02-08T22:38:04.463Z,13.03
2019-02-08T22:40:34.750Z,15.67
2019-02-08T22:43:05.199Z,10.97
2019-02-08T22:45:36.876Z,12.80
2019-02-08T22:48:07.950Z,9.07
2019-02-08T22:50:38.467Z,11.87
2019-02-08T22:53:10.488Z,17.20
2019-02-08T22:55:40.737Z,12.37
2019-02-08T22:58:11.051Z,11.67
2019-02-08T23:01:11.059Z,14.30
2019-02-08T23:03:41.386Z,12.60
2019-02-08T23:06:11.576Z,12.87
2019-02-08T23:08:41.994Z,14.63
2019-02-08T23:11:13.187Z,15.73
2019-02-08T23:13:43.382Z,9.80
2019-02-08T23:16:13.814Z,10.93
2019-02-08T23:18:44.507Z,15.13
2019-02-08T23:21:14.664Z,11.17
2019-02-08T23:23:45.044Z,14.63
2019-02-08T23:26:15.186Z,13.93
2019-02-08T23:28:46.405Z,7.53
2019-02-08T23:31:16.677Z,9.03
2019-02-08T23:33:46.925Z,10.90
2019-02-08T23:36:18.152Z,9.53
2019-02-08T23:38:48.781Z,8.23
2019-02-08T23:41:18.996Z,8.80
2019-02-08T23:43:50.890Z,11.37
2019-02-08T23:46:21.085Z,10.30
2019-02-08T23:48:51.338Z,8.33
2019-02-08T23:51:22.635Z,10.00
2019-02-08T23:53:53.085Z,7.73
2019-02-08T23:56:23.408Z,9.83
2019-02-08T23:58:53.671Z,13.43
